Time;durP1;ratioP1;P1;durP2;ratioP2;P2;SDS_P1;SDS_P2;PMS_P1;PMS_P2;Temp;Humidity;BMP_temperature;BMP_pressure;BME280_temperature;BME280_humidity;BME280_pressure;Samples;Min_cycle;Max_cycle;Signal;HPM_P1;HPM_P2
2023/06/08 00:01:15;;;;;;;;;;;10.40;99.90;;;;;;8320374;28;19958;-78
2023/06/08 00:05:17;;;;;;;;;;;10.20;99.90;;;;;;8360665;28;19912;-78
2023/06/08 00:09:18;;;;;;;;;;;10.30;99.90;;;;;;8350552;28;19908;-78
2023/06/08 00:13:18;;;;;;;;;;;10.20;99.90;;;;;;8360921;28;19913;-78
2023/06/08 00:17:19;;;;;;;;;;;10.10;99.90;;;;;;8365613;28;19974;-78
2023/06/08 00:21:19;;;;;;;;;;;10.00;99.90;;;;;;8355725;28;19928;-78
2023/06/08 00:25:20;;;;;;;;;;;9.80;99.90;;;;;;8356405;28;19960;-78
2023/06/08 00:29:20;;;;;;;;;;;9.60;99.90;;;;;;8352023;28;19916;-78
2023/06/08 00:33:20;;;;;;;;;;;9.40;99.90;;;;;;8365809;28;20365;-78
2023/06/08 00:37:21;;;;;;;;;;;9.30;99.90;;;;;;8363310;28;19917;-78
2023/06/08 00:41:21;;;;;;;;;;;9.30;99.90;;;;;;8376369;28;19916;-78
2023/06/08 00:45:22;;;;;;;;;;;9.40;99.90;;;;;;8353779;28;19912;-78
2023/06/08 00:49:22;;;;;;;;;;;9.30;99.90;;;;;;8383186;28;19908;-78
2023/06/08 00:53:24;;;;;;;;;;;9.50;99.90;;;;;;8355374;28;19915;-78
2023/06/08 00:57:25;;;;;;;;;;;9.50;99.90;;;;;;8357820;28;20376;-78
2023/06/08 01:01:29;;;;;;;;;;;9.40;99.90;;;;;;8356937;28;19974;-78
2023/06/08 01:05:32;;;;;;;;;;;9.60;99.90;;;;;;8365164;28;19963;-78
2023/06/08 01:09:33;;;;;;;;;;;9.70;99.90;;;;;;8386369;28;19962;-78
2023/06/08 01:13:42;;;;;;;;;;;9.50;99.90;;;;;;8361801;28;19909;-78
2023/06/08 01:17:47;;;;;;;;;;;9.50;99.90;;;;;;8386153;28;19916;-78
2023/06/08 01:22:00;;;;;;;;;;;9.40;99.90;;;;;;8356131;28;19924;-78
2023/06/08 01:26:02;;;;;;;;;;;9.40;99.90;;;;;;8379579;28;19909;-77
2023/06/08 01:30:03;;;;;;;;;;;9.20;99.90;;;;;;8357864;28;19916;-78
2023/06/08 01:34:05;;;;;;;;;;;9.20;99.90;;;;;;8362939;28;19916;-78
2023/06/08 01:38:13;;;;;;;;;;;9.10;99.90;;;;;;8366781;28;20371;-77
2023/06/08 01:42:16;;;;;;;;;;;9.20;99.90;;;;;;8393005;28;19919;-78
2023/06/08 01:46:18;;;;;;;;;;;9.20;99.90;;;;;;8378587;28;19916;-78
2023/06/08 01:50:19;;;;;;;;;;;9.00;99.90;;;;;;8390514;28;19962;-78
2023/06/08 01:54:23;;;;;;;;;;;8.90;99.90;;;;;;8360942;28;19917;-77
2023/06/08 01:58:23;;;;;;;;;;;8.70;99.90;;;;;;8377158;28;19962;-78
2023/06/08 02:02:24;;;;;;;;;;;8.70;99.90;;;;;;8373715;28;20392;-79
2023/06/08 02:06:24;;;;;;;;;;;8.70;99.90;;;;;;8368397;28;20401;-78
2023/06/08 02:10:25;;;;;;;;;;;8.50;99.90;;;;;;8380831;28;19940;-78
2023/06/08 02:14:25;;;;;;;;;;;8.60;99.90;;;;;;8351891;28;19947;-77
2023/06/08 02:18:26;;;;;;;;;;;8.80;99.90;;;;;;8363186;28;19912;-77
2023/06/08 02:22:30;;;;;;;;;;;8.80;99.90;;;;;;8367065;28;20389;-78
2023/06/08 02:26:30;;;;;;;;;;;9.00;99.90;;;;;;8359171;28;19909;-79
2023/06/08 02:30:31;;;;;;;;;;;8.80;99.90;;;;;;8370982;28;19909;-78
2023/06/08 02:34:32;;;;;;;;;;;8.40;99.90;;;;;;8360149;28;19916;-78
2023/06/08 02:38:32;;;;;;;;;;;8.10;99.90;;;;;;8349257;28;20428;-78
2023/06/08 02:42:33;;;;;;;;;;;7.90;99.90;;;;;;8368470;28;19912;-79
2023/06/08 02:46:34;;;;;;;;;;;7.80;99.90;;;;;;8362341;28;19913;-78
2023/06/08 02:50:34;;;;;;;;;;;7.70;99.90;;;;;;8357457;28;19909;-77
2023/06/08 02:54:36;;;;;;;;;;;8.10;99.90;;;;;;8370554;28;19913;-77
2023/06/08 02:58:36;;;;;;;;;;;8.10;99.90;;;;;;8362658;28;19917;-77
2023/06/08 03:02:37;;;;;;;;;;;8.10;99.90;;;;;;8388730;28;20312;-78
2023/06/08 03:06:37;;;;;;;;;;;7.90;99.90;;;;;;8359142;28;20010;-77
2023/06/08 03:10:38;;;;;;;;;;;8.00;99.90;;;;;;8377067;28;19935;-77
2023/06/08 03:14:41;;;;;;;;;;;8.10;99.90;;;;;;8381536;28;19915;-77
2023/06/08 03:18:42;;;;;;;;;;;8.40;99.90;;;;;;8357619;28;19912;-77
2023/06/08 03:22:45;;;;;;;;;;;8.30;99.90;;;;;;8357692;28;20019;-78
2023/06/08 03:26:46;;;;;;;;;;;8.30;99.90;;;;;;8374999;28;19963;-77
2023/06/08 03:30:46;;;;;;;;;;;8.10;99.90;;;;;;8350513;28;20003;-78
2023/06/08 03:34:48;;;;;;;;;;;7.90;99.90;;;;;;8360458;28;19947;-78
2023/06/08 03:38:48;;;;;;;;;;;8.00;99.90;;;;;;8364069;28;19920;-77
2023/06/08 03:42:50;;;;;;;;;;;7.90;99.90;;;;;;8381388;28;19987;-78
2023/06/08 03:46:51;;;;;;;;;;;8.10;99.90;;;;;;8368511;28;19938;-77
2023/06/08 03:50:51;;;;;;;;;;;8.10;99.90;;;;;;8373368;28;19966;-78
2023/06/08 03:54:52;;;;;;;;;;;8.20;99.90;;;;;;8355743;28;19974;-77
2023/06/08 03:58:53;;;;;;;;;;;8.40;99.90;;;;;;8370873;28;20551;-78
2023/06/08 04:02:53;;;;;;;;;;;8.60;99.90;;;;;;8368017;28;19919;-78
2023/06/08 04:06:53;;;;;;;;;;;9.00;99.90;;;;;;8363148;28;20434;-76
2023/06/08 04:10:54;;;;;;;;;;;9.30;99.90;;;;;;8342548;28;20381;-78
2023/06/08 04:14:54;;;;;;;;;;;9.60;99.90;;;;;;8350022;28;19919;-78
2023/06/08 04:18:55;;;;;;;;;;;10.30;99.90;;;;;;8343026;28;19916;-78
2023/06/08 04:22:56;;;;;;;;;;;11.10;99.90;;;;;;8371153;28;19920;-78
2023/06/08 04:26:57;;;;;;;;;;;11.40;99.90;;;;;;8362047;28;19913;-78
2023/06/08 04:31:00;;;;;;;;;;;11.70;99.90;;;;;;8354132;28;19983;-78
2023/06/08 04:35:03;;;;;;;;;;;12.00;99.90;;;;;;8355071;28;19913;-78
2023/06/08 04:39:03;;;;;;;;;;;13.00;99.90;;;;;;8368800;28;19919;-78
2023/06/08 04:43:04;;;;;;;;;;;13.70;99.90;;;;;;8375984;28;19913;-79
2023/06/08 04:47:07;;;;;;;;;;;13.90;99.90;;;;;;8384388;28;19961;-78
2023/06/08 04:51:09;;;;;;;;;;;14.60;99.90;;;;;;8384456;28;19960;-78
2023/06/08 04:55:13;;;;;;;;;;;15.00;99.90;;;;;;8367309;28;19995;-78
2023/06/08 04:59:13;;;;;;;;;;;15.50;99.90;;;;;;8367112;28;19915;-79
2023/06/08 05:03:14;;;;;;;;;;;16.20;99.90;;;;;;8348813;28;19913;-78
2023/06/08 05:07:14;;;;;;;;;;;16.70;99.90;;;;;;8344064;28;20381;-79
2023/06/08 05:11:15;;;;;;;;;;;17.40;99.90;;;;;;8333548;28;19920;-78
2023/06/08 05:15:15;;;;;;;;;;;17.70;99.90;;;;;;8336584;28;19920;-83
2023/06/08 05:19:15;;;;;;;;;;;17.60;99.90;;;;;;8337665;28;20634;-83
2023/06/08 05:23:16;;;;;;;;;;;18.50;99.90;;;;;;8346006;28;19928;-83
2023/06/08 05:27:16;;;;;;;;;;;18.80;99.90;;;;;;8344504;28;19913;-83
2023/06/08 05:31:17;;;;;;;;;;;19.60;99.90;;;;;;8348039;28;19924;-85
2023/06/08 05:35:17;;;;;;;;;;;20.00;99.90;;;;;;8344976;28;19955;-84
2023/06/08 05:39:18;;;;;;;;;;;19.90;99.90;;;;;;8340361;28;19908;-84
2023/06/08 05:43:18;;;;;;;;;;;20.00;99.90;;;;;;8337685;28;19919;-84
2023/06/08 05:47:19;;;;;;;;;;;19.80;99.90;;;;;;8358517;28;19912;-84
2023/06/08 05:51:20;;;;;;;;;;;20.00;99.90;;;;;;8340169;28;20369;-85
2023/06/08 05:55:20;;;;;;;;;;;20.60;99.90;;;;;;8339848;28;19958;-84
2023/06/08 05:59:21;;;;;;;;;;;20.90;99.90;;;;;;8358890;28;20381;-84
2023/06/08 06:03:22;;;;;;;;;;;21.30;99.90;;;;;;8372834;28;19983;-84
2023/06/08 06:07:22;;;;;;;;;;;21.20;99.90;;;;;;8366216;28;19917;-84
2023/06/08 06:11:22;;;;;;;;;;;21.20;99.90;;;;;;8350333;28;20442;-84
2023/06/08 06:15:23;;;;;;;;;;;21.50;99.90;;;;;;8354057;28;19992;-83
2023/06/08 06:19:23;;;;;;;;;;;21.60;99.90;;;;;;8350353;28;19916;-84
2023/06/08 06:23:24;;;;;;;;;;;21.90;99.90;;;;;;8352628;28;19947;-84
2023/06/08 06:27:25;;;;;;;;;;;22.30;99.90;;;;;;8364933;28;20003;-85
2023/06/08 06:31:25;;;;;;;;;;;23.00;99.90;;;;;;8349781;28;19926;-86
2023/06/08 06:35:26;;;;;;;;;;;23.50;99.90;;;;;;8352720;28;19908;-85
2023/06/08 06:39:27;;;;;;;;;;;23.90;99.90;;;;;;8349416;28;19917;-85
2023/06/08 06:43:27;;;;;;;;;;;24.80;99.90;;;;;;8349056;28;19916;-85
2023/06/08 06:47:28;;;;;;;;;;;24.90;99.90;;;;;;8355249;28;20487;-85
2023/06/08 06:51:28;;;;;;;;;;;24.70;99.90;;;;;;8388247;28;19912;-85
2023/06/08 06:55:34;;;;;;;;;;;24.60;99.90;;;;;;8366692;28;20290;-85
2023/06/08 06:59:34;;;;;;;;;;;24.60;99.90;;;;;;8358935;28;19913;-84
2023/06/08 07:03:35;;;;;;;;;;;24.80;99.90;;;;;;8347738;28;19916;-84
2023/06/08 07:07:36;;;;;;;;;;;24.70;99.90;;;;;;8358658;28;19914;-85
2023/06/08 07:11:37;;;;;;;;;;;24.70;99.90;;;;;;8346366;28;19912;-84
2023/06/08 07:15:41;;;;;;;;;;;24.90;99.20;;;;;;8349361;28;19941;-85
2023/06/08 07:19:44;;;;;;;;;;;25.70;99.90;;;;;;8349153;28;19913;-84
2023/06/08 07:23:44;;;;;;;;;;;26.30;96.70;;;;;;8348004;28;19920;-85
2023/06/08 07:27:45;;;;;;;;;;;26.50;98.50;;;;;;8362376;28;19974;-84
2023/06/08 07:31:45;;;;;;;;;;;26.70;96.10;;;;;;8344383;28;19916;-85
2023/06/08 07:35:46;;;;;;;;;;;26.50;97.50;;;;;;8360031;28;19978;-84
2023/06/08 07:39:46;;;;;;;;;;;26.40;96.40;;;;;;8386892;28;20002;-85
2023/06/08 07:43:47;;;;;;;;;;;26.70;99.80;;;;;;8357672;28;20388;-86
2023/06/08 07:47:47;;;;;;;;;;;27.60;95.30;;;;;;8354741;28;20389;-84
2023/06/08 07:51:48;;;;;;;;;;;28.00;94.00;;;;;;8352941;28;19956;-84
2023/06/08 07:55:50;;;;;;;;;;;27.90;93.50;;;;;;8360320;28;23104;-85
2023/06/08 07:59:51;;;;;;;;;;;27.80;93.30;;;;;;8354528;28;20265;-83
2023/06/08 08:03:52;;;;;;;;;;;28.00;92.30;;;;;;8356531;28;20301;-85
2023/06/08 08:07:52;;;;;;;;;;;28.50;90.40;;;;;;8348326;28;20404;-83
2023/06/08 08:11:52;;;;;;;;;;;28.20;86.30;;;;;;8336849;28;19935;-84
2023/06/08 08:15:53;;;;;;;;;;;28.10;88.50;;;;;;8362745;28;20365;-85
2023/06/08 08:19:53;;;;;;;;;;;28.20;84.60;;;;;;8346111;28;20020;-86
2023/06/08 08:23:54;;;;;;;;;;;28.60;87.30;;;;;;8342407;28;19952;-85
2023/06/08 08:27:54;;;;;;;;;;;28.60;79.70;;;;;;8363117;28;19995;-84
2023/06/08 08:31:55;;;;;;;;;;;28.00;77.80;;;;;;8366951;28;20302;-87
2023/06/08 08:35:55;;;;;;;;;;;28.00;75.90;;;;;;8359542;28;20010;-85
2023/06/08 08:39:56;;;;;;;;;;;28.20;79.60;;;;;;8367463;28;19913;-85
2023/06/08 08:44:08;;;;;;;;;;;27.90;75.50;;;;;;8347603;28;19917;-87
2023/06/08 08:48:12;;;;;;;;;;;27.40;76.40;;;;;;8355177;28;20381;-86
2023/06/08 08:52:13;;;;;;;;;;;27.20;79.00;;;;;;8329900;28;19913;-86
2023/06/08 08:56:17;;;;;;;;;;;27.50;76.30;;;;;;8355154;28;20452;-85
2023/06/08 09:00:19;;;;;;;;;;;28.00;74.70;;;;;;8351930;28;19944;-85
2023/06/08 09:04:19;;;;;;;;;;;27.90;72.80;;;;;;8361356;28;19913;-85
2023/06/08 09:08:22;;;;;;;;;;;28.00;74.60;;;;;;8335150;28;19916;-86
2023/06/08 09:12:22;;;;;;;;;;;27.90;74.80;;;;;;8326307;28;19924;-86
2023/06/08 09:16:23;;;;;;;;;;;27.50;76.30;;;;;;8353701;28;19970;-86
2023/06/08 09:20:28;;;;;;;;;;;27.90;78.40;;;;;;8337263;28;19923;-85
2023/06/08 09:24:28;;;;;;;;;;;28.40;76.40;;;;;;8330683;28;19925;-86
2023/06/08 09:28:29;;;;;;;;;;;29.00;70.30;;;;;;8346683;28;20007;-86
2023/06/08 09:32:31;;;;;;;;;;;28.10;75.60;;;;;;8337576;28;20412;-85
2023/06/08 09:36:35;;;;;;;;;;;27.90;75.10;;;;;;8363019;28;20435;-85
2023/06/08 09:40:36;;;;;;;;;;;28.50;75.00;;;;;;8324464;28;19917;-85
2023/06/08 09:44:37;;;;;;;;;;;28.20;72.40;;;;;;8331916;28;19963;-84
2023/06/08 09:48:38;;;;;;;;;;;28.60;71.50;;;;;;8341649;28;19913;-84
2023/06/08 09:52:40;;;;;;;;;;;29.20;69.80;;;;;;8359035;28;19958;-85
2023/06/08 09:56:44;;;;;;;;;;;29.00;66.30;;;;;;8368171;28;19917;-84
2023/06/08 10:00:45;;;;;;;;;;;29.20;65.20;;;;;;8340175;28;19921;-86
2023/06/08 10:04:49;;;;;;;;;;;29.10;62.50;;;;;;8346346;28;20308;-84
2023/06/08 10:08:51;;;;;;;;;;;28.90;66.30;;;;;;8368613;28;19917;-81
2023/06/08 10:12:52;;;;;;;;;;;28.80;61.40;;;;;;8334979;28;19935;-80
2023/06/08 10:16:53;;;;;;;;;;;29.20;64.30;;;;;;8345877;28;20003;-81
2023/06/08 10:20:53;;;;;;;;;;;29.20;62.50;;;;;;8352312;28;19927;-80
2023/06/08 10:24:55;;;;;;;;;;;29.70;61.70;;;;;;8345628;28;19916;-82
2023/06/08 10:29:03;;;;;;;;;;;29.90;60.70;;;;;;8337851;28;19955;-81
2023/06/08 10:33:10;;;;;;;;;;;29.60;66.70;;;;;;8353775;28;19928;-81
2023/06/08 10:37:29;;;;;;;;;;;29.30;66.40;;;;;;8344019;28;19935;-81
2023/06/08 10:41:36;;;;;;;;;;;29.40;70.00;;;;;;8344136;28;20336;-81
2023/06/08 10:45:39;;;;;;;;;;;31.00;62.00;;;;;;8342229;28;20412;-82
2023/06/08 10:49:43;;;;;;;;;;;31.80;62.00;;;;;;8340108;28;19939;-80
2023/06/08 10:54:08;;;;;;;;;;;32.30;55.60;;;;;;8332819;28;20637;-81
2023/06/08 10:58:19;;;;;;;;;;;32.70;60.50;;;;;;8344089;28;20063;-83
2023/06/08 11:02:20;;;;;;;;;;;33.80;57.50;;;;;;8359997;28;19923;-83
2023/06/08 11:06:20;;;;;;;;;;;33.60;53.90;;;;;;8341759;28;19924;-83
2023/06/08 11:10:21;;;;;;;;;;;33.60;55.90;;;;;;8358955;28;19913;-81
2023/06/08 11:14:22;;;;;;;;;;;33.70;53.30;;;;;;8360626;28;19998;-82
2023/06/08 11:18:24;;;;;;;;;;;34.30;53.70;;;;;;8342255;28;20547;-82
2023/06/08 11:22:24;;;;;;;;;;;34.30;51.20;;;;;;8336938;28;19971;-82
2023/06/08 11:26:25;;;;;;;;;;;34.20;51.50;;;;;;8338280;28;19913;-81
2023/06/08 11:30:28;;;;;;;;;;;33.40;50.20;;;;;;8341531;28;19920;-83
2023/06/08 11:34:29;;;;;;;;;;;32.50;52.40;;;;;;8329365;28;19916;-80
2023/06/08 11:38:30;;;;;;;;;;;31.40;52.40;;;;;;8353548;28;20778;-81
2023/06/08 11:42:30;;;;;;;;;;;29.80;55.30;;;;;;8342365;28;19944;-81
2023/06/08 11:46:32;;;;;;;;;;;28.40;59.50;;;;;;8355571;28;20003;-81
2023/06/08 11:50:33;;;;;;;;;;;27.80;59.60;;;;;;8337149;28;19956;-82
2023/06/08 11:54:33;;;;;;;;;;;28.20;61.50;;;;;;8328124;28;19916;-81
2023/06/08 11:58:36;;;;;;;;;;;30.10;55.70;;;;;;8357722;28;20003;-81
2023/06/08 12:02:37;;;;;;;;;;;30.90;54.70;;;;;;8356121;28;19915;-81
2023/06/08 12:06:39;;;;;;;;;;;31.90;56.10;;;;;;8327699;28;19924;-80
2023/06/08 12:10:41;;;;;;;;;;;33.60;51.60;;;;;;8332661;28;19920;-81
2023/06/08 12:14:47;;;;;;;;;;;34.50;49.20;;;;;;8334791;28;19920;-80
2023/06/08 12:18:48;;;;;;;;;;;32.80;51.20;;;;;;8329491;28;20375;-82
2023/06/08 12:22:48;;;;;;;;;;;32.40;53.50;;;;;;8328560;28;19943;-81
2023/06/08 12:26:49;;;;;;;;;;;33.30;49.70;;;;;;8341831;28;19913;-80
2023/06/08 12:30:50;;;;;;;;;;;35.10;47.80;;;;;;8344195;28;19913;-81
2023/06/08 12:34:50;;;;;;;;;;;36.00;45.80;;;;;;8340357;28;19912;-81
2023/06/08 12:38:51;;;;;;;;;;;35.70;45.10;;;;;;8320502;28;20370;-80
2023/06/08 12:42:52;;;;;;;;;;;35.30;44.50;;;;;;8329825;28;20001;-80
2023/06/08 12:46:52;;;;;;;;;;;35.30;46.40;;;;;;8340683;28;19919;-81
2023/06/08 12:50:56;;;;;;;;;;;34.40;48.20;;;;;;8330755;28;19917;-81
2023/06/08 12:54:56;;;;;;;;;;;34.20;45.00;;;;;;8321862;28;19913;-81
2023/06/08 12:58:56;;;;;;;;;;;33.00;47.00;;;;;;8352590;28;20297;-81
2023/06/08 13:02:57;;;;;;;;;;;30.90;51.20;;;;;;8338295;28;19917;-80
2023/06/08 13:06:58;;;;;;;;;;;29.50;53.60;;;;;;8332631;28;20027;-80
2023/06/08 13:11:00;;;;;;;;;;;28.80;56.40;;;;;;8334586;28;19920;-80
2023/06/08 13:15:00;;;;;;;;;;;28.40;53.70;;;;;;8349338;28;19921;-81
2023/06/08 13:19:01;;;;;;;;;;;28.10;55.90;;;;;;8332596;28;20350;-79
2023/06/08 13:23:01;;;;;;;;;;;27.50;60.70;;;;;;8337531;28;19920;-78
2023/06/08 13:27:02;;;;;;;;;;;27.20;60.10;;;;;;8353058;28;19923;-79
2023/06/08 13:31:02;;;;;;;;;;;29.20;58.70;;;;;;8345692;28;20250;-79
2023/06/08 13:35:03;;;;;;;;;;;31.90;52.60;;;;;;8312079;28;19920;-79
2023/06/08 13:39:03;;;;;;;;;;;32.60;52.50;;;;;;8348474;28;20359;-81
2023/06/08 13:43:06;;;;;;;;;;;33.20;49.60;;;;;;8325617;28;20449;-80
2023/06/08 13:47:07;;;;;;;;;;;33.90;47.30;;;;;;8356057;28;19913;-81
2023/06/08 13:51:07;;;;;;;;;;;33.70;48.90;;;;;;8342348;28;19965;-80
2023/06/08 13:55:08;;;;;;;;;;;34.90;49.10;;;;;;8333074;28;19944;-79
2023/06/08 13:59:08;;;;;;;;;;;34.20;47.10;;;;;;8333768;28;19917;-79
2023/06/08 14:03:09;;;;;;;;;;;34.60;49.20;;;;;;8338956;28;19920;-80
2023/06/08 14:07:09;;;;;;;;;;;33.90;49.60;;;;;;8351135;28;20007;-80
2023/06/08 14:11:10;;;;;;;;;;;34.60;48.00;;;;;;8331594;28;19912;-81
2023/06/08 14:15:11;;;;;;;;;;;35.00;48.10;;;;;;8327525;28;19913;-80
2023/06/08 14:19:13;;;;;;;;;;;34.70;46.10;;;;;;8345924;28;19924;-80
2023/06/08 14:23:15;;;;;;;;;;;34.40;45.50;;;;;;8340628;28;19924;-80
2023/06/08 14:27:15;;;;;;;;;;;33.10;47.90;;;;;;8332011;28;19919;-79
2023/06/08 14:31:16;;;;;;;;;;;32.60;48.00;;;;;;8350224;28;19924;-80
2023/06/08 14:35:16;;;;;;;;;;;33.70;45.80;;;;;;8330624;28;19932;-80
2023/06/08 14:39:17;;;;;;;;;;;35.80;45.70;;;;;;8337849;28;20448;-80
2023/06/08 14:43:17;;;;;;;;;;;35.70;44.70;;;;;;8340410;28;20510;-80
2023/06/08 14:47:18;;;;;;;;;;;35.50;43.90;;;;;;8361993;28;20234;-80
2023/06/08 14:51:19;;;;;;;;;;;34.90;45.00;;;;;;8345130;28;19953;-80
2023/06/08 14:55:19;;;;;;;;;;;35.20;47.40;;;;;;8350994;28;19913;-81
2023/06/08 14:59:20;;;;;;;;;;;34.00;47.30;;;;;;8340107;28;19913;-81
2023/06/08 15:03:20;;;;;;;;;;;34.50;45.80;;;;;;8336972;28;19921;-79
2023/06/08 15:07:21;;;;;;;;;;;34.50;46.00;;;;;;8339296;28;20336;-80
2023/06/08 15:11:21;;;;;;;;;;;33.90;47.40;;;;;;8337061;28;19913;-79
2023/06/08 15:15:23;;;;;;;;;;;34.50;42.70;;;;;;8339803;28;20051;-79
2023/06/08 15:19:24;;;;;;;;;;;35.00;45.40;;;;;;8338880;28;19924;-78
2023/06/08 15:23:24;;;;;;;;;;;33.10;47.90;;;;;;8351259;28;19955;-78
2023/06/08 15:27:29;;;;;;;;;;;32.80;46.80;;;;;;8347013;28;20664;-79
2023/06/08 15:31:30;;;;;;;;;;;32.90;47.00;;;;;;8351316;28;19916;-79
2023/06/08 15:35:30;;;;;;;;;;;32.20;46.80;;;;;;8350535;28;19919;-78
2023/06/08 15:39:31;;;;;;;;;;;29.80;50.90;;;;;;8338717;28;19970;-79
2023/06/08 15:43:31;;;;;;;;;;;28.50;53.40;;;;;;8349362;28;20412;-79
2023/06/08 15:47:32;;;;;;;;;;;28.60;53.80;;;;;;8333365;28;19959;-79
2023/06/08 15:51:32;;;;;;;;;;;28.30;54.00;;;;;;8346259;28;19913;-78
2023/06/08 15:55:32;;;;;;;;;;;28.10;56.70;;;;;;8335672;28;19913;-79
2023/06/08 15:59:34;;;;;;;;;;;27.40;56.80;;;;;;8354789;28;19920;-79
2023/06/08 16:03:34;;;;;;;;;;;27.00;58.10;;;;;;8344636;28;19913;-78
2023/06/08 16:07:35;;;;;;;;;;;26.70;57.20;;;;;;8333978;28;19920;-78
2023/06/08 16:11:35;;;;;;;;;;;26.60;57.10;;;;;;8337447;28;19913;-78
2023/06/08 16:15:36;;;;;;;;;;;26.80;58.40;;;;;;8329725;28;19913;-78
2023/06/08 16:19:36;;;;;;;;;;;26.50;59.60;;;;;;8350142;28;19920;-77
2023/06/08 16:23:36;;;;;;;;;;;25.50;65.90;;;;;;8344522;28;19924;-79
2023/06/08 16:27:37;;;;;;;;;;;24.80;69.00;;;;;;8338845;28;20014;-79
2023/06/08 16:31:39;;;;;;;;;;;24.50;67.20;;;;;;8317761;28;20304;-79
2023/06/08 16:35:40;;;;;;;;;;;24.50;70.20;;;;;;8327043;28;19913;-77
2023/06/08 16:39:40;;;;;;;;;;;24.40;70.20;;;;;;8351877;28;19912;-79
2023/06/08 16:43:41;;;;;;;;;;;24.00;72.60;;;;;;8344630;28;19928;-78
2023/06/08 16:47:42;;;;;;;;;;;23.90;74.30;;;;;;8333589;28;19963;-78
2023/06/08 16:51:42;;;;;;;;;;;23.90;71.60;;;;;;8336784;28;20003;-79
2023/06/08 16:55:43;;;;;;;;;;;23.80;73.50;;;;;;8350780;28;20415;-78
2023/06/08 16:59:44;;;;;;;;;;;23.50;72.10;;;;;;8322809;28;19920;-78
2023/06/08 17:03:44;;;;;;;;;;;23.30;73.40;;;;;;8346755;28;19927;-79
2023/06/08 17:07:45;;;;;;;;;;;23.30;76.50;;;;;;8356785;28;19912;-81
2023/06/08 17:11:45;;;;;;;;;;;22.90;77.30;;;;;;8330418;28;20304;-80
2023/06/08 17:15:46;;;;;;;;;;;22.80;77.90;;;;;;8341359;28;19909;-80
2023/06/08 17:19:46;;;;;;;;;;;22.80;77.80;;;;;;8323585;28;19920;-80
2023/06/08 17:23:47;;;;;;;;;;;22.60;77.30;;;;;;8271248;28;1743615;-79
2023/06/08 17:27:47;;;;;;;;;;;22.50;77.30;;;;;;8356498;28;19908;-78
2023/06/08 17:31:48;;;;;;;;;;;22.60;78.90;;;;;;8340063;28;19909;-79
2023/06/08 17:35:48;;;;;;;;;;;22.20;79.20;;;;;;8339429;28;19917;-80
2023/06/08 17:39:49;;;;;;;;;;;22.00;79.40;;;;;;8321216;28;20127;-80
2023/06/08 17:43:49;;;;;;;;;;;21.90;79.70;;;;;;8333337;28;20370;-80
2023/06/08 17:47:50;;;;;;;;;;;21.80;79.50;;;;;;8340309;28;20477;-80
2023/06/08 17:51:50;;;;;;;;;;;22.10;80.10;;;;;;8335756;28;19918;-80
2023/06/08 17:55:51;;;;;;;;;;;21.80;80.80;;;;;;8354616;28;20415;-79
2023/06/08 17:59:51;;;;;;;;;;;22.30;79.80;;;;;;8352084;28;19996;-80
2023/06/08 18:03:52;;;;;;;;;;;22.30;79.60;;;;;;8355112;28;19934;-79
2023/06/08 18:07:52;;;;;;;;;;;22.50;82.60;;;;;;8334613;28;19935;-80
2023/06/08 18:11:53;;;;;;;;;;;21.80;81.50;;;;;;8334400;28;19913;-80
2023/06/08 18:15:53;;;;;;;;;;;21.50;82.10;;;;;;8338213;28;19909;-77
2023/06/08 18:19:56;;;;;;;;;;;21.10;80.10;;;;;;8331324;28;19924;-79
2023/06/08 18:23:56;;;;;;;;;;;21.20;82.00;;;;;;8336667;28;19921;-79
2023/06/08 18:27:57;;;;;;;;;;;20.70;84.80;;;;;;8357523;28;19920;-80
2023/06/08 18:31:57;;;;;;;;;;;20.70;86.70;;;;;;8356672;28;19924;-80
2023/06/08 18:35:58;;;;;;;;;;;20.30;89.50;;;;;;8357428;28;20407;-80
2023/06/08 18:39:58;;;;;;;;;;;20.30;90.80;;;;;;8341792;28;20447;-79
2023/06/08 18:43:59;;;;;;;;;;;20.20;91.00;;;;;;8341658;28;19943;-80
2023/06/08 18:48:00;;;;;;;;;;;20.50;91.70;;;;;;8343630;28;19916;-81
2023/06/08 18:52:02;;;;;;;;;;;19.90;92.20;;;;;;8343487;28;20300;-79
2023/06/08 18:56:02;;;;;;;;;;;20.00;93.00;;;;;;8337143;28;19916;-80
2023/06/08 19:00:03;;;;;;;;;;;19.90;93.90;;;;;;8343416;28;19947;-80
2023/06/08 19:04:04;;;;;;;;;;;20.10;94.00;;;;;;8361617;28;20016;-80
2023/06/08 19:08:05;;;;;;;;;;;19.60;95.00;;;;;;8340054;28;19916;-80
2023/06/08 19:12:07;;;;;;;;;;;19.40;96.90;;;;;;8340120;28;19913;-80
2023/06/08 19:16:08;;;;;;;;;;;19.20;98.10;;;;;;8348297;28;19971;-80
2023/06/08 19:20:09;;;;;;;;;;;18.70;99.70;;;;;;8334786;28;19913;-79
2023/06/08 19:24:10;;;;;;;;;;;18.90;99.90;;;;;;8350752;28;19966;-80
2023/06/08 19:28:10;;;;;;;;;;;19.10;99.90;;;;;;8332181;28;19990;-79
2023/06/08 19:32:11;;;;;;;;;;;18.80;99.90;;;;;;8357026;28;19945;-81
2023/06/08 19:36:12;;;;;;;;;;;18.60;99.90;;;;;;8329776;28;19980;-80
2023/06/08 19:40:13;;;;;;;;;;;18.40;99.90;;;;;;8336651;28;19917;-80
2023/06/08 19:44:13;;;;;;;;;;;18.10;99.90;;;;;;8334520;28;19960;-80
2023/06/08 19:48:14;;;;;;;;;;;17.70;99.90;;;;;;8328592;28;19956;-81
2023/06/08 19:52:15;;;;;;;;;;;18.20;99.90;;;;;;8328233;28;19921;-79
2023/06/08 19:56:16;;;;;;;;;;;17.50;99.90;;;;;;8335448;28;20493;-80
2023/06/08 20:00:17;;;;;;;;;;;17.30;99.90;;;;;;8331037;28;19917;-79
2023/06/08 20:04:17;;;;;;;;;;;17.20;99.90;;;;;;8334488;28;19913;-79
2023/06/08 20:08:18;;;;;;;;;;;16.80;99.90;;;;;;8342961;28;19999;-79
2023/06/08 20:12:18;;;;;;;;;;;16.30;99.90;;;;;;8350677;28;19928;-81
2023/06/08 20:16:19;;;;;;;;;;;15.50;99.90;;;;;;8335305;28;19924;-80
2023/06/08 20:20:19;;;;;;;;;;;15.90;99.90;;;;;;8343623;28;19921;-80
2023/06/08 20:24:20;;;;;;;;;;;15.80;99.90;;;;;;8321570;28;19955;-79
2023/06/08 20:28:20;;;;;;;;;;;15.50;99.90;;;;;;8348850;28;19975;-78
2023/06/08 20:32:21;;;;;;;;;;;15.50;99.90;;;;;;8342354;28;20003;-78
2023/06/08 20:36:21;;;;;;;;;;;15.40;99.90;;;;;;8322670;28;19917;-79
2023/06/08 20:40:23;;;;;;;;;;;15.50;99.90;;;;;;8335919;28;19952;-80
2023/06/08 20:44:23;;;;;;;;;;;15.00;99.90;;;;;;8324601;28;19917;-80
2023/06/08 20:48:24;;;;;;;;;;;14.80;99.90;;;;;;8346068;28;20611;-81
2023/06/08 20:52:25;;;;;;;;;;;14.70;99.90;;;;;;8356172;28;20455;-80
2023/06/08 20:56:26;;;;;;;;;;;14.80;99.90;;;;;;8337089;28;20474;-80
2023/06/08 21:00:26;;;;;;;;;;;14.40;99.90;;;;;;8338215;28;19916;-80
2023/06/08 21:04:30;;;;;;;;;;;14.80;99.90;;;;;;8352435;28;19919;-82
2023/06/08 21:08:30;;;;;;;;;;;14.70;99.90;;;;;;8353053;28;19913;-80
2023/06/08 21:12:31;;;;;;;;;;;14.80;99.90;;;;;;8328814;28;19921;-80
2023/06/08 21:16:31;;;;;;;;;;;14.70;99.90;;;;;;8323339;28;19916;-80
2023/06/08 21:20:32;;;;;;;;;;;14.80;99.90;;;;;;8339810;28;19931;-81
2023/06/08 21:24:32;;;;;;;;;;;14.70;99.90;;;;;;8338660;28;20490;-81
2023/06/08 21:28:33;;;;;;;;;;;14.70;99.90;;;;;;8341715;28;19913;-81
2023/06/08 21:32:33;;;;;;;;;;;15.20;99.90;;;;;;8338781;28;20534;-80
2023/06/08 21:36:34;;;;;;;;;;;15.10;99.90;;;;;;8333978;28;20473;-80
2023/06/08 21:40:34;;;;;;;;;;;14.80;99.90;;;;;;8336074;28;19920;-80
2023/06/08 21:44:34;;;;;;;;;;;14.50;99.90;;;;;;8357371;28;20008;-82
2023/06/08 21:48:35;;;;;;;;;;;14.20;99.90;;;;;;8347787;28;19982;-82
2023/06/08 21:52:35;;;;;;;;;;;13.90;99.90;;;;;;8351716;28;19909;-81
2023/06/08 21:56:36;;;;;;;;;;;13.70;99.90;;;;;;8339469;28;19936;-81
2023/06/08 22:00:37;;;;;;;;;;;13.70;99.90;;;;;;8363257;28;20471;-81
2023/06/08 22:04:37;;;;;;;;;;;13.70;99.90;;;;;;8351224;28;19935;-81
2023/06/08 22:08:37;;;;;;;;;;;13.90;99.90;;;;;;8366433;28;19912;-80
2023/06/08 22:12:39;;;;;;;;;;;14.00;99.90;;;;;;8336484;28;19913;-80
2023/06/08 22:16:41;;;;;;;;;;;13.90;99.90;;;;;;8337095;28;20064;-81
2023/06/08 22:20:44;;;;;;;;;;;13.90;99.90;;;;;;8340960;28;19980;-81
2023/06/08 22:24:44;;;;;;;;;;;13.60;99.90;;;;;;8358419;28;19939;-81
2023/06/08 22:28:45;;;;;;;;;;;13.70;99.90;;;;;;8345949;28;19913;-80
2023/06/08 22:32:46;;;;;;;;;;;13.20;99.90;;;;;;8357822;28;19913;-81
2023/06/08 22:36:46;;;;;;;;;;;12.60;99.90;;;;;;8333681;28;19920;-81
2023/06/08 22:40:47;;;;;;;;;;;12.90;99.90;;;;;;8359329;28;19952;-81
2023/06/08 22:44:49;;;;;;;;;;;13.00;99.90;;;;;;8324371;28;19932;-81
2023/06/08 22:48:50;;;;;;;;;;;12.90;99.90;;;;;;8344589;28;19913;-81
2023/06/08 22:52:55;;;;;;;;;;;12.70;99.90;;;;;;8340033;28;19999;-81
2023/06/08 22:56:57;;;;;;;;;;;12.30;99.90;;;;;;8358264;28;19994;-81
2023/06/08 23:00:58;;;;;;;;;;;11.90;99.90;;;;;;8341692;28;19998;-81
2023/06/08 23:04:58;;;;;;;;;;;11.70;99.90;;;;;;8339099;28;19912;-81
2023/06/08 23:09:02;;;;;;;;;;;11.50;99.90;;;;;;8347128;28;19916;-81
2023/06/08 23:13:03;;;;;;;;;;;11.40;99.90;;;;;;8337474;28;19923;-80
2023/06/08 23:17:03;;;;;;;;;;;11.30;99.90;;;;;;8329466;28;19913;-80
2023/06/08 23:21:04;;;;;;;;;;;11.30;99.90;;;;;;8325052;28;19920;-80
2023/06/08 23:25:04;;;;;;;;;;;11.30;99.90;;;;;;8331586;28;19924;-80